sensor_id;sensor_type;location;lat;lon;timestamp;P1;durP1;ratioP1;P2;durP2;ratioP2
14094;SDS011;18096;48.142;16.290;2022-10-16T00:01:14;57.57;;;32.30;;
14094;SDS011;18096;48.142;16.290;2022-10-16T00:03:41;58.67;;;33.50;;
14094;SDS011;18096;48.142;16.290;2022-10-16T00:06:09;52.53;;;34.10;;
14094;SDS011;18096;48.142;16.290;2022-10-16T00:08:36;64.95;;;34.25;;
14094;SDS011;18096;48.142;16.290;2022-10-16T00:11:03;55.40;;;34.22;;
14094;SDS011;18096;48.142;16.290;2022-10-16T00:13:34;51.08;;;35.22;;
14094;SDS011;18096;48.142;16.290;2022-10-16T00:16:02;54.08;;;35.03;;
14094;SDS011;18096;48.142;16.290;2022-10-16T00:18:28;52.35;;;33.83;;
14094;SDS011;18096;48.142;16.290;2022-10-16T00:20:54;45.97;;;31.60;;
14094;SDS011;18096;48.142;16.290;2022-10-16T00:23:26;51.53;;;31.95;;
14094;SDS011;18096;48.142;16.290;2022-10-16T00:25:55;57.90;;;32.67;;
14094;SDS011;18096;48.142;16.290;2022-10-16T00:28:25;68.72;;;32.38;;
14094;SDS011;18096;48.142;16.290;2022-10-16T00:30:51;59.00;;;33.55;;
14094;SDS011;18096;48.142;16.290;2022-10-16T00:33:17;46.00;;;31.50;;
14094;SDS011;18096;48.142;16.290;2022-10-16T00:35:43;47.38;;;31.27;;
14094;SDS011;18096;48.142;16.290;2022-10-16T00:38:09;53.55;;;32.75;;
14094;SDS011;18096;48.142;16.290;2022-10-16T00:40:34;58.10;;;31.73;;
14094;SDS011;18096;48.142;16.290;2022-10-16T00:43:00;51.67;;;32.50;;
14094;SDS011;18096;48.142;16.290;2022-10-16T00:45:26;54.88;;;33.00;;
14094;SDS011;18096;48.142;16.290;2022-10-16T00:47:52;58.03;;;32.40;;
14094;SDS011;18096;48.142;16.290;2022-10-16T00:52:49;44.30;;;31.58;;
14094;SDS011;18096;48.142;16.290;2022-10-16T00:55:16;55.25;;;31.40;;
14094;SDS011;18096;48.142;16.290;2022-10-16T00:57:42;62.05;;;31.23;;
14094;SDS011;18096;48.142;16.290;2022-10-16T01:00:14;47.83;;;30.00;;
14094;SDS011;18096;48.142;16.290;2022-10-16T01:02:42;48.00;;;30.27;;
14094;SDS011;18096;48.142;16.290;2022-10-16T01:05:08;50.78;;;31.55;;
14094;SDS011;18096;48.142;16.290;2022-10-16T01:10:12;46.70;;;30.20;;
14094;SDS011;18096;48.142;16.290;2022-10-16T01:15:37;45.95;;;29.77;;
14094;SDS011;18096;48.142;16.290;2022-10-16T01:18:29;45.60;;;29.98;;
14094;SDS011;18096;48.142;16.290;2022-10-16T01:21:10;59.43;;;29.10;;
14094;SDS011;18096;48.142;16.290;2022-10-16T01:29:10;44.25;;;28.00;;
14094;SDS011;18096;48.142;16.290;2022-10-16T01:31:47;44.25;;;29.42;;
14094;SDS011;18096;48.142;16.290;2022-10-16T01:34:19;50.13;;;27.40;;
14094;SDS011;18096;48.142;16.290;2022-10-16T01:36:51;42.07;;;28.63;;
14094;SDS011;18096;48.142;16.290;2022-10-16T01:39:22;54.25;;;29.10;;
14094;SDS011;18096;48.142;16.290;2022-10-16T01:42:14;48.08;;;29.25;;
14094;SDS011;18096;48.142;16.290;2022-10-16T01:44:45;41.50;;;26.67;;
14094;SDS011;18096;48.142;16.290;2022-10-16T01:47:13;36.78;;;26.75;;
14094;SDS011;18096;48.142;16.290;2022-10-16T01:49:42;34.70;;;25.48;;
14094;SDS011;18096;48.142;16.290;2022-10-16T01:52:13;36.60;;;26.40;;
14094;SDS011;18096;48.142;16.290;2022-10-16T01:54:43;36.15;;;25.35;;
14094;SDS011;18096;48.142;16.290;2022-10-16T01:57:13;39.80;;;26.40;;
14094;SDS011;18096;48.142;16.290;2022-10-16T01:59:44;39.25;;;25.00;;
14094;SDS011;18096;48.142;16.290;2022-10-16T02:02:17;39.72;;;26.58;;
14094;SDS011;18096;48.142;16.290;2022-10-16T02:04:46;36.67;;;26.00;;
14094;SDS011;18096;48.142;16.290;2022-10-16T02:07:26;45.08;;;26.80;;
14094;SDS011;18096;48.142;16.290;2022-10-16T02:09:52;46.03;;;24.93;;
14094;SDS011;18096;48.142;16.290;2022-10-16T02:12:20;39.40;;;26.50;;
14094;SDS011;18096;48.142;16.290;2022-10-16T02:14:53;42.60;;;27.20;;
14094;SDS011;18096;48.142;16.290;2022-10-16T02:17:19;37.65;;;24.40;;
14094;SDS011;18096;48.142;16.290;2022-10-16T02:19:46;38.38;;;26.92;;
14094;SDS011;18096;48.142;16.290;2022-10-16T02:22:19;36.63;;;25.70;;
14094;SDS011;18096;48.142;16.290;2022-10-16T02:27:27;35.93;;;25.07;;
14094;SDS011;18096;48.142;16.290;2022-10-16T02:29:59;35.42;;;26.52;;
14094;SDS011;18096;48.142;16.290;2022-10-16T02:32:33;36.13;;;25.45;;
14094;SDS011;18096;48.142;16.290;2022-10-16T02:35:00;37.88;;;25.42;;
14094;SDS011;18096;48.142;16.290;2022-10-16T02:37:27;34.80;;;24.77;;
14094;SDS011;18096;48.142;16.290;2022-10-16T02:39:54;36.72;;;23.35;;
14094;SDS011;18096;48.142;16.290;2022-10-16T02:42:26;39.42;;;24.50;;
14094;SDS011;18096;48.142;16.290;2022-10-16T02:45:03;37.90;;;25.30;;
14094;SDS011;18096;48.142;16.290;2022-10-16T02:47:29;34.47;;;23.70;;
14094;SDS011;18096;48.142;16.290;2022-10-16T02:49:55;41.70;;;25.73;;
14094;SDS011;18096;48.142;16.290;2022-10-16T02:52:21;39.75;;;24.98;;
14094;SDS011;18096;48.142;16.290;2022-10-16T02:54:46;32.47;;;24.10;;
14094;SDS011;18096;48.142;16.290;2022-10-16T02:57:12;42.23;;;25.37;;
14094;SDS011;18096;48.142;16.290;2022-10-16T02:59:38;35.85;;;24.80;;
14094;SDS011;18096;48.142;16.290;2022-10-16T03:02:03;34.23;;;25.53;;
14094;SDS011;18096;48.142;16.290;2022-10-16T03:04:29;37.43;;;25.37;;
14094;SDS011;18096;48.142;16.290;2022-10-16T03:06:55;37.40;;;25.23;;
14094;SDS011;18096;48.142;16.290;2022-10-16T03:09:20;40.40;;;25.00;;
14094;SDS011;18096;48.142;16.290;2022-10-16T03:11:46;47.80;;;26.90;;
14094;SDS011;18096;48.142;16.290;2022-10-16T03:14:11;40.17;;;25.80;;
14094;SDS011;18096;48.142;16.290;2022-10-16T03:16:37;37.93;;;24.77;;
14094;SDS011;18096;48.142;16.290;2022-10-16T03:19:03;36.28;;;23.33;;
14094;SDS011;18096;48.142;16.290;2022-10-16T03:21:28;38.10;;;24.00;;
14094;SDS011;18096;48.142;16.290;2022-10-16T03:23:54;32.80;;;22.83;;
14094;SDS011;18096;48.142;16.290;2022-10-16T03:26:20;46.60;;;24.48;;
14094;SDS011;18096;48.142;16.290;2022-10-16T03:28:45;29.25;;;22.65;;
14094;SDS011;18096;48.142;16.290;2022-10-16T03:31:12;33.17;;;23.97;;
14094;SDS011;18096;48.142;16.290;2022-10-16T03:33:37;27.75;;;20.73;;
14094;SDS011;18096;48.142;16.290;2022-10-16T03:36:03;30.27;;;21.03;;
14094;SDS011;18096;48.142;16.290;2022-10-16T03:38:29;27.25;;;20.27;;
14094;SDS011;18096;48.142;16.290;2022-10-16T03:40:55;30.45;;;20.10;;
14094;SDS011;18096;48.142;16.290;2022-10-16T03:43:20;26.75;;;19.55;;
14094;SDS011;18096;48.142;16.290;2022-10-16T03:45:46;26.40;;;20.20;;
14094;SDS011;18096;48.142;16.290;2022-10-16T03:48:12;29.50;;;20.80;;
14094;SDS011;18096;48.142;16.290;2022-10-16T03:50:37;25.23;;;19.40;;
14094;SDS011;18096;48.142;16.290;2022-10-16T03:53:03;25.23;;;17.70;;
14094;SDS011;18096;48.142;16.290;2022-10-16T03:55:29;25.92;;;18.02;;
14094;SDS011;18096;48.142;16.290;2022-10-16T03:57:54;26.20;;;18.42;;
14094;SDS011;18096;48.142;16.290;2022-10-16T04:00:20;23.60;;;19.30;;
14094;SDS011;18096;48.142;16.290;2022-10-16T04:02:46;24.80;;;19.30;;
14094;SDS011;18096;48.142;16.290;2022-10-16T04:05:11;36.83;;;19.93;;
14094;SDS011;18096;48.142;16.290;2022-10-16T04:07:37;29.98;;;20.48;;
14094;SDS011;18096;48.142;16.290;2022-10-16T04:10:03;26.00;;;19.75;;
14094;SDS011;18096;48.142;16.290;2022-10-16T04:12:29;24.80;;;18.45;;
14094;SDS011;18096;48.142;16.290;2022-10-16T04:14:55;26.90;;;18.70;;
14094;SDS011;18096;48.142;16.290;2022-10-16T04:17:20;29.13;;;19.67;;
14094;SDS011;18096;48.142;16.290;2022-10-16T04:19:46;34.25;;;19.17;;
14094;SDS011;18096;48.142;16.290;2022-10-16T04:22:11;38.38;;;20.08;;
14094;SDS011;18096;48.142;16.290;2022-10-16T04:24:38;31.20;;;20.10;;
14094;SDS011;18096;48.142;16.290;2022-10-16T04:27:03;27.00;;;19.90;;
14094;SDS011;18096;48.142;16.290;2022-10-16T04:29:29;31.60;;;20.30;;
14094;SDS011;18096;48.142;16.290;2022-10-16T04:31:55;37.03;;;20.73;;
14094;SDS011;18096;48.142;16.290;2022-10-16T04:34:20;26.43;;;20.50;;
14094;SDS011;18096;48.142;16.290;2022-10-16T04:36:47;32.30;;;21.00;;
14094;SDS011;18096;48.142;16.290;2022-10-16T04:39:14;33.22;;;19.60;;
14094;SDS011;18096;48.142;16.290;2022-10-16T04:41:40;30.13;;;20.58;;
14094;SDS011;18096;48.142;16.290;2022-10-16T04:44:05;25.47;;;19.97;;
14094;SDS011;18096;48.142;16.290;2022-10-16T04:46:31;26.65;;;20.48;;
14094;SDS011;18096;48.142;16.290;2022-10-16T04:48:56;24.23;;;19.50;;
14094;SDS011;18096;48.142;16.290;2022-10-16T04:51:22;26.80;;;18.73;;
14094;SDS011;18096;48.142;16.290;2022-10-16T04:53:48;27.10;;;19.70;;
14094;SDS011;18096;48.142;16.290;2022-10-16T04:56:13;26.48;;;20.13;;
14094;SDS011;18096;48.142;16.290;2022-10-16T04:58:40;27.25;;;19.45;;
14094;SDS011;18096;48.142;16.290;2022-10-16T05:01:06;26.52;;;18.58;;
14094;SDS011;18096;48.142;16.290;2022-10-16T05:03:31;24.43;;;18.07;;
14094;SDS011;18096;48.142;16.290;2022-10-16T05:05:57;24.40;;;18.70;;
14094;SDS011;18096;48.142;16.290;2022-10-16T05:08:23;25.35;;;17.83;;
14094;SDS011;18096;48.142;16.290;2022-10-16T05:10:48;23.87;;;17.90;;
14094;SDS011;18096;48.142;16.290;2022-10-16T05:13:14;25.13;;;19.30;;
14094;SDS011;18096;48.142;16.290;2022-10-16T05:15:40;27.70;;;19.57;;
14094;SDS011;18096;48.142;16.290;2022-10-16T05:18:05;26.00;;;19.60;;
14094;SDS011;18096;48.142;16.290;2022-10-16T05:20:31;26.73;;;18.85;;
14094;SDS011;18096;48.142;16.290;2022-10-16T05:22:57;27.47;;;19.73;;
14094;SDS011;18096;48.142;16.290;2022-10-16T05:25:22;35.97;;;19.88;;
14094;SDS011;18096;48.142;16.290;2022-10-16T05:27:48;34.78;;;20.95;;
14094;SDS011;18096;48.142;16.290;2022-10-16T05:30:15;31.50;;;20.15;;
14094;SDS011;18096;48.142;16.290;2022-10-16T05:32:41;29.33;;;20.08;;
14094;SDS011;18096;48.142;16.290;2022-10-16T05:35:10;31.27;;;19.10;;
14094;SDS011;18096;48.142;16.290;2022-10-16T05:37:36;23.35;;;18.45;;
14094;SDS011;18096;48.142;16.290;2022-10-16T05:40:02;26.53;;;18.43;;
14094;SDS011;18096;48.142;16.290;2022-10-16T05:42:29;27.60;;;18.95;;
14094;SDS011;18096;48.142;16.290;2022-10-16T05:44:55;33.55;;;19.35;;
14094;SDS011;18096;48.142;16.290;2022-10-16T05:47:20;25.43;;;18.60;;
14094;SDS011;18096;48.142;16.290;2022-10-16T05:49:46;24.95;;;18.58;;
14094;SDS011;18096;48.142;16.290;2022-10-16T05:52:12;42.73;;;18.23;;
14094;SDS011;18096;48.142;16.290;2022-10-16T05:54:38;22.27;;;17.63;;
14094;SDS011;18096;48.142;16.290;2022-10-16T05:57:03;27.25;;;19.08;;
14094;SDS011;18096;48.142;16.290;2022-10-16T05:59:30;26.52;;;18.17;;
14094;SDS011;18096;48.142;16.290;2022-10-16T06:01:56;25.58;;;18.95;;
14094;SDS011;18096;48.142;16.290;2022-10-16T06:04:22;30.40;;;19.07;;
14094;SDS011;18096;48.142;16.290;2022-10-16T06:06:48;26.30;;;19.90;;
14094;SDS011;18096;48.142;16.290;2022-10-16T06:09:13;26.65;;;18.90;;
14094;SDS011;18096;48.142;16.290;2022-10-16T06:11:39;25.17;;;18.00;;
14094;SDS011;18096;48.142;16.290;2022-10-16T06:14:05;25.53;;;19.13;;
14094;SDS011;18096;48.142;16.290;2022-10-16T06:16:37;28.58;;;18.92;;
14094;SDS011;18096;48.142;16.290;2022-10-16T06:19:03;32.92;;;17.75;;
14094;SDS011;18096;48.142;16.290;2022-10-16T06:21:31;30.83;;;20.63;;
14094;SDS011;18096;48.142;16.290;2022-10-16T06:23:57;28.60;;;21.10;;
14094;SDS011;18096;48.142;16.290;2022-10-16T06:26:25;25.92;;;19.83;;
14094;SDS011;18096;48.142;16.290;2022-10-16T06:28:53;28.52;;;18.90;;
14094;SDS011;18096;48.142;16.290;2022-10-16T06:31:20;26.35;;;17.60;;
14094;SDS011;18096;48.142;16.290;2022-10-16T06:33:49;23.48;;;17.02;;
14094;SDS011;18096;48.142;16.290;2022-10-16T06:36:16;22.58;;;16.60;;
14094;SDS011;18096;48.142;16.290;2022-10-16T06:38:43;22.33;;;17.08;;
14094;SDS011;18096;48.142;16.290;2022-10-16T06:41:11;23.87;;;16.40;;
14094;SDS011;18096;48.142;16.290;2022-10-16T06:43:38;28.17;;;17.10;;
14094;SDS011;18096;48.142;16.290;2022-10-16T06:46:04;24.47;;;17.00;;
14094;SDS011;18096;48.142;16.290;2022-10-16T06:48:35;33.15;;;18.65;;
14094;SDS011;18096;48.142;16.290;2022-10-16T06:51:03;30.65;;;18.00;;
14094;SDS011;18096;48.142;16.290;2022-10-16T06:53:34;33.40;;;20.05;;
14094;SDS011;18096;48.142;16.290;2022-10-16T06:56:12;42.87;;;22.83;;
14094;SDS011;18096;48.142;16.290;2022-10-16T06:58:39;49.25;;;23.20;;
14094;SDS011;18096;48.142;16.290;2022-10-16T07:01:05;49.87;;;25.70;;
14094;SDS011;18096;48.142;16.290;2022-10-16T07:03:31;55.07;;;25.83;;
14094;SDS011;18096;48.142;16.290;2022-10-16T07:05:57;54.70;;;26.58;;
14094;SDS011;18096;48.142;16.290;2022-10-16T07:08:26;55.13;;;28.15;;
14094;SDS011;18096;48.142;16.290;2022-10-16T07:10:57;47.92;;;25.73;;
14094;SDS011;18096;48.142;16.290;2022-10-16T07:13:27;44.67;;;25.97;;
14094;SDS011;18096;48.142;16.290;2022-10-16T07:15:53;58.73;;;28.20;;
14094;SDS011;18096;48.142;16.290;2022-10-16T07:18:18;55.97;;;29.30;;
14094;SDS011;18096;48.142;16.290;2022-10-16T07:20:44;56.40;;;27.63;;
14094;SDS011;18096;48.142;16.290;2022-10-16T07:23:10;58.97;;;28.87;;
14094;SDS011;18096;48.142;16.290;2022-10-16T07:25:35;60.00;;;30.00;;
14094;SDS011;18096;48.142;16.290;2022-10-16T07:28:01;63.00;;;30.43;;
14094;SDS011;18096;48.142;16.290;2022-10-16T07:30:27;48.88;;;28.88;;
14094;SDS011;18096;48.142;16.290;2022-10-16T07:32:52;45.17;;;28.70;;
14094;SDS011;18096;48.142;16.290;2022-10-16T07:35:18;52.20;;;29.13;;
14094;SDS011;18096;48.142;16.290;2022-10-16T07:37:44;62.30;;;31.08;;
14094;SDS011;18096;48.142;16.290;2022-10-16T07:40:10;57.10;;;30.73;;
14094;SDS011;18096;48.142;16.290;2022-10-16T07:42:36;51.07;;;30.87;;
14094;SDS011;18096;48.142;16.290;2022-10-16T07:45:02;53.80;;;30.87;;
14094;SDS011;18096;48.142;16.290;2022-10-16T07:47:28;54.50;;;30.85;;
14094;SDS011;18096;48.142;16.290;2022-10-16T07:49:54;53.33;;;31.00;;
14094;SDS011;18096;48.142;16.290;2022-10-16T07:52:19;50.27;;;30.03;;
14094;SDS011;18096;48.142;16.290;2022-10-16T07:54:45;51.27;;;30.13;;
14094;SDS011;18096;48.142;16.290;2022-10-16T07:57:10;51.10;;;28.05;;
14094;SDS011;18096;48.142;16.290;2022-10-16T07:59:36;45.53;;;27.33;;
14094;SDS011;18096;48.142;16.290;2022-10-16T08:02:02;45.25;;;26.33;;
14094;SDS011;18096;48.142;16.290;2022-10-16T08:04:27;43.87;;;25.20;;
14094;SDS011;18096;48.142;16.290;2022-10-16T08:06:53;42.63;;;25.80;;
14094;SDS011;18096;48.142;16.290;2022-10-16T08:09:19;39.10;;;24.38;;
14094;SDS011;18096;48.142;16.290;2022-10-16T08:11:45;41.35;;;26.00;;
14094;SDS011;18096;48.142;16.290;2022-10-16T08:14:10;41.77;;;25.07;;
14094;SDS011;18096;48.142;16.290;2022-10-16T08:16:36;36.57;;;23.73;;
14094;SDS011;18096;48.142;16.290;2022-10-16T08:19:02;34.75;;;23.63;;
14094;SDS011;18096;48.142;16.290;2022-10-16T08:21:27;35.27;;;23.53;;
14094;SDS011;18096;48.142;16.290;2022-10-16T08:23:53;37.27;;;23.87;;
14094;SDS011;18096;48.142;16.290;2022-10-16T08:26:20;35.30;;;23.02;;
14094;SDS011;18096;48.142;16.290;2022-10-16T08:28:45;38.73;;;24.40;;
14094;SDS011;18096;48.142;16.290;2022-10-16T08:31:15;35.50;;;24.73;;
14094;SDS011;18096;48.142;16.290;2022-10-16T08:33:41;50.95;;;26.25;;
14094;SDS011;18096;48.142;16.290;2022-10-16T08:36:11;34.22;;;23.50;;
14094;SDS011;18096;48.142;16.290;2022-10-16T08:38:37;40.40;;;24.43;;
14094;SDS011;18096;48.142;16.290;2022-10-16T08:43:43;38.55;;;24.83;;
14094;SDS011;18096;48.142;16.290;2022-10-16T08:48:53;38.83;;;25.30;;
14094;SDS011;18096;48.142;16.290;2022-10-16T08:51:23;44.65;;;26.40;;
14094;SDS011;18096;48.142;16.290;2022-10-16T08:56:19;40.80;;;26.60;;
14094;SDS011;18096;48.142;16.290;2022-10-16T08:58:45;46.60;;;27.20;;
14094;SDS011;18096;48.142;16.290;2022-10-16T09:01:13;39.35;;;25.67;;
14094;SDS011;18096;48.142;16.290;2022-10-16T09:22:41;45.78;;;25.60;;
14094;SDS011;18096;48.142;16.290;2022-10-16T09:25:11;46.13;;;27.20;;
14094;SDS011;18096;48.142;16.290;2022-10-16T09:27:42;37.45;;;25.10;;
14094;SDS011;18096;48.142;16.290;2022-10-16T09:30:15;42.90;;;26.05;;
14094;SDS011;18096;48.142;16.290;2022-10-16T09:32:43;39.45;;;25.40;;
14094;SDS011;18096;48.142;16.290;2022-10-16T09:35:19;38.15;;;24.67;;
14094;SDS011;18096;48.142;16.290;2022-10-16T09:37:48;47.50;;;25.73;;
14094;SDS011;18096;48.142;16.290;2022-10-16T09:40:30;37.47;;;23.35;;
14094;SDS011;18096;48.142;16.290;2022-10-16T09:43:01;35.63;;;23.60;;
14094;SDS011;18096;48.142;16.290;2022-10-16T09:45:53;30.45;;;22.48;;
14094;SDS011;18096;48.142;16.290;2022-10-16T09:48:47;29.80;;;22.43;;
14094;SDS011;18096;48.142;16.290;2022-10-16T09:51:19;35.57;;;23.83;;
14094;SDS011;18096;48.142;16.290;2022-10-16T09:53:45;37.35;;;23.92;;
14094;SDS011;18096;48.142;16.290;2022-10-16T09:56:20;36.78;;;24.20;;
14094;SDS011;18096;48.142;16.290;2022-10-16T09:58:56;41.75;;;25.38;;
14094;SDS011;18096;48.142;16.290;2022-10-16T10:01:26;41.75;;;27.38;;
14094;SDS011;18096;48.142;16.290;2022-10-16T10:03:57;51.05;;;27.60;;
14094;SDS011;18096;48.142;16.290;2022-10-16T10:06:37;41.50;;;27.00;;
14094;SDS011;18096;48.142;16.290;2022-10-16T10:09:17;44.80;;;28.55;;
14094;SDS011;18096;48.142;16.290;2022-10-16T10:14:18;45.08;;;28.50;;
14094;SDS011;18096;48.142;16.290;2022-10-16T10:16:50;47.45;;;28.20;;
14094;SDS011;18096;48.142;16.290;2022-10-16T10:21:44;44.25;;;28.40;;
14094;SDS011;18096;48.142;16.290;2022-10-16T10:24:14;50.65;;;28.60;;
14094;SDS011;18096;48.142;16.290;2022-10-16T10:26:43;50.60;;;26.70;;
14094;SDS011;18096;48.142;16.290;2022-10-16T10:29:25;49.90;;;30.20;;
14094;SDS011;18096;48.142;16.290;2022-10-16T10:32:17;49.03;;;29.58;;
14094;SDS011;18096;48.142;16.290;2022-10-16T10:40:45;51.30;;;29.97;;
14094;SDS011;18096;48.142;16.290;2022-10-16T10:43:38;49.78;;;29.88;;
14094;SDS011;18096;48.142;16.290;2022-10-16T10:46:05;52.70;;;30.98;;
14094;SDS011;18096;48.142;16.290;2022-10-16T10:48:46;44.28;;;27.98;;
14094;SDS011;18096;48.142;16.290;2022-10-16T10:51:38;46.45;;;30.02;;
14094;SDS011;18096;48.142;16.290;2022-10-16T10:54:13;55.47;;;31.13;;
14094;SDS011;18096;48.142;16.290;2022-10-16T11:08:13;51.28;;;30.55;;
14094;SDS011;18096;48.142;16.290;2022-10-16T11:11:04;46.17;;;29.58;;
14094;SDS011;18096;48.142;16.290;2022-10-16T11:13:37;45.90;;;29.52;;
14094;SDS011;18096;48.142;16.290;2022-10-16T11:16:23;42.47;;;27.50;;
14094;SDS011;18096;48.142;16.290;2022-10-16T11:19:12;47.90;;;30.05;;
14094;SDS011;18096;48.142;16.290;2022-10-16T11:22:02;46.97;;;28.35;;
14094;SDS011;18096;48.142;16.290;2022-10-16T11:24:44;55.05;;;31.63;;
14094;SDS011;18096;48.142;16.290;2022-10-16T11:27:15;59.20;;;31.75;;
14094;SDS011;18096;48.142;16.290;2022-10-16T11:29:47;51.63;;;30.48;;
14094;SDS011;18096;48.142;16.290;2022-10-16T11:32:52;55.40;;;28.50;;
14094;SDS011;18096;48.142;16.290;2022-10-16T11:38:41;51.55;;;31.83;;
14094;SDS011;18096;48.142;16.290;2022-10-16T11:41:37;55.08;;;30.85;;
14094;SDS011;18096;48.142;16.290;2022-10-16T11:49:53;50.78;;;32.15;;
14094;SDS011;18096;48.142;16.290;2022-10-16T11:52:42;49.90;;;31.50;;
14094;SDS011;18096;48.142;16.290;2022-10-16T11:55:18;54.33;;;32.40;;
14094;SDS011;18096;48.142;16.290;2022-10-16T11:57:57;54.50;;;31.80;;
14094;SDS011;18096;48.142;16.290;2022-10-16T12:00:35;51.38;;;32.30;;
14094;SDS011;18096;48.142;16.290;2022-10-16T12:03:11;51.88;;;32.42;;
14094;SDS011;18096;48.142;16.290;2022-10-16T12:08:32;54.47;;;32.95;;
14094;SDS011;18096;48.142;16.290;2022-10-16T12:11:07;51.17;;;32.15;;
14094;SDS011;18096;48.142;16.290;2022-10-16T12:18:39;55.45;;;31.25;;
14094;SDS011;18096;48.142;16.290;2022-10-16T12:21:07;52.95;;;32.20;;
14094;SDS011;18096;48.142;16.290;2022-10-16T12:23:38;52.22;;;32.28;;
14094;SDS011;18096;48.142;16.290;2022-10-16T12:26:12;60.25;;;35.08;;
14094;SDS011;18096;48.142;16.290;2022-10-16T12:28:38;54.85;;;33.45;;
14094;SDS011;18096;48.142;16.290;2022-10-16T12:31:06;59.92;;;34.47;;
14094;SDS011;18096;48.142;16.290;2022-10-16T12:33:35;55.25;;;33.78;;
14094;SDS011;18096;48.142;16.290;2022-10-16T12:36:09;61.83;;;36.28;;
14094;SDS011;18096;48.142;16.290;2022-10-16T12:38:48;52.40;;;34.03;;
14094;SDS011;18096;48.142;16.290;2022-10-16T12:43:55;51.88;;;35.08;;
14094;SDS011;18096;48.142;16.290;2022-10-16T12:46:23;58.20;;;35.28;;
14094;SDS011;18096;48.142;16.290;2022-10-16T12:51:37;55.70;;;34.15;;
14094;SDS011;18096;48.142;16.290;2022-10-16T12:56:59;57.97;;;35.25;;
14094;SDS011;18096;48.142;16.290;2022-10-16T13:16:25;63.50;;;36.08;;
14094;SDS011;18096;48.142;16.290;2022-10-16T13:22:10;57.10;;;35.90;;
14094;SDS011;18096;48.142;16.290;2022-10-16T13:27:56;54.70;;;35.25;;
14094;SDS011;18096;48.142;16.290;2022-10-16T13:30:31;60.28;;;36.40;;
14094;SDS011;18096;48.142;16.290;2022-10-16T13:35:30;60.75;;;35.60;;
14094;SDS011;18096;48.142;16.290;2022-10-16T13:40:29;62.13;;;35.92;;
14094;SDS011;18096;48.142;16.290;2022-10-16T13:42:55;57.40;;;35.35;;
14094;SDS011;18096;48.142;16.290;2022-10-16T13:45:22;68.27;;;35.60;;
14094;SDS011;18096;48.142;16.290;2022-10-16T13:48:00;59.08;;;35.20;;
14094;SDS011;18096;48.142;16.290;2022-10-16T13:50:30;56.30;;;36.23;;
14094;SDS011;18096;48.142;16.290;2022-10-16T13:53:06;58.90;;;35.67;;
14094;SDS011;18096;48.142;16.290;2022-10-16T13:55:40;64.22;;;38.03;;
14094;SDS011;18096;48.142;16.290;2022-10-16T13:58:12;55.93;;;34.27;;
14094;SDS011;18096;48.142;16.290;2022-10-16T14:00:39;57.17;;;34.30;;
14094;SDS011;18096;48.142;16.290;2022-10-16T14:03:17;63.72;;;37.00;;
14094;SDS011;18096;48.142;16.290;2022-10-16T14:05:52;65.60;;;38.10;;
14094;SDS011;18096;48.142;16.290;2022-10-16T14:08:20;58.30;;;38.90;;
14094;SDS011;18096;48.142;16.290;2022-10-16T14:10:48;60.80;;;37.50;;
14094;SDS011;18096;48.142;16.290;2022-10-16T14:13:19;64.53;;;37.85;;
14094;SDS011;18096;48.142;16.290;2022-10-16T14:15:52;70.10;;;38.33;;
14094;SDS011;18096;48.142;16.290;2022-10-16T14:18:23;66.80;;;37.85;;
14094;SDS011;18096;48.142;16.290;2022-10-16T14:20:51;72.40;;;42.03;;
14094;SDS011;18096;48.142;16.290;2022-10-16T14:23:21;66.07;;;38.80;;
14094;SDS011;18096;48.142;16.290;2022-10-16T14:25:53;69.70;;;42.83;;
14094;SDS011;18096;48.142;16.290;2022-10-16T14:28:19;68.22;;;40.65;;
14094;SDS011;18096;48.142;16.290;2022-10-16T14:30:54;70.43;;;39.08;;
14094;SDS011;18096;48.142;16.290;2022-10-16T14:36:01;57.07;;;35.60;;
14094;SDS011;18096;48.142;16.290;2022-10-16T14:38:29;73.93;;;43.83;;
14094;SDS011;18096;48.142;16.290;2022-10-16T14:40:57;60.83;;;37.13;;
14094;SDS011;18096;48.142;16.290;2022-10-16T14:43:33;58.92;;;35.90;;
14094;SDS011;18096;48.142;16.290;2022-10-16T14:46:01;62.45;;;36.08;;
14094;SDS011;18096;48.142;16.290;2022-10-16T14:48:51;65.80;;;38.15;;
14094;SDS011;18096;48.142;16.290;2022-10-16T14:51:24;58.50;;;37.70;;
14094;SDS011;18096;48.142;16.290;2022-10-16T14:53:51;65.05;;;36.92;;
14094;SDS011;18096;48.142;16.290;2022-10-16T14:56:24;54.97;;;35.72;;
14094;SDS011;18096;48.142;16.290;2022-10-16T14:58:53;64.65;;;36.85;;
14094;SDS011;18096;48.142;16.290;2022-10-16T15:01:20;68.20;;;39.00;;
14094;SDS011;18096;48.142;16.290;2022-10-16T15:03:46;69.73;;;38.90;;
14094;SDS011;18096;48.142;16.290;2022-10-16T15:06:13;73.18;;;40.60;;
14094;SDS011;18096;48.142;16.290;2022-10-16T15:08:40;63.67;;;38.15;;
14094;SDS011;18096;48.142;16.290;2022-10-16T15:11:13;67.07;;;38.60;;
14094;SDS011;18096;48.142;16.290;2022-10-16T15:13:40;67.43;;;37.13;;
14094;SDS011;18096;48.142;16.290;2022-10-16T15:16:13;71.90;;;42.85;;
14094;SDS011;18096;48.142;16.290;2022-10-16T15:18:40;84.15;;;48.00;;
14094;SDS011;18096;48.142;16.290;2022-10-16T15:21:07;93.88;;;50.17;;
14094;SDS011;18096;48.142;16.290;2022-10-16T15:23:32;74.82;;;44.05;;
14094;SDS011;18096;48.142;16.290;2022-10-16T15:25:58;64.37;;;38.10;;
14094;SDS011;18096;48.142;16.290;2022-10-16T15:28:25;64.70;;;39.13;;
14094;SDS011;18096;48.142;16.290;2022-10-16T15:30:51;63.67;;;38.35;;
14094;SDS011;18096;48.142;16.290;2022-10-16T15:33:20;69.80;;;38.58;;
14094;SDS011;18096;48.142;16.290;2022-10-16T15:35:52;80.97;;;43.65;;
14094;SDS011;18096;48.142;16.290;2022-10-16T15:38:19;78.80;;;45.80;;
14094;SDS011;18096;48.142;16.290;2022-10-16T15:40:46;73.03;;;42.78;;
14094;SDS011;18096;48.142;16.290;2022-10-16T15:43:13;68.55;;;41.08;;
14094;SDS011;18096;48.142;16.290;2022-10-16T15:45:38;72.22;;;43.50;;
14094;SDS011;18096;48.142;16.290;2022-10-16T15:48:04;79.15;;;46.97;;
14094;SDS011;18096;48.142;16.290;2022-10-16T15:50:31;74.00;;;46.85;;
14094;SDS011;18096;48.142;16.290;2022-10-16T15:52:57;84.30;;;45.70;;
14094;SDS011;18096;48.142;16.290;2022-10-16T15:55:23;72.73;;;42.27;;
14094;SDS011;18096;48.142;16.290;2022-10-16T15:57:49;69.78;;;41.15;;
14094;SDS011;18096;48.142;16.290;2022-10-16T16:00:17;63.70;;;40.10;;
14094;SDS011;18096;48.142;16.290;2022-10-16T16:02:51;58.97;;;38.53;;
14094;SDS011;18096;48.142;16.290;2022-10-16T16:05:18;70.30;;;40.13;;
14094;SDS011;18096;48.142;16.290;2022-10-16T16:07:45;65.43;;;37.20;;
14094;SDS011;18096;48.142;16.290;2022-10-16T16:10:11;67.47;;;38.17;;
14094;SDS011;18096;48.142;16.290;2022-10-16T16:12:37;58.95;;;38.45;;
14094;SDS011;18096;48.142;16.290;2022-10-16T16:15:04;75.75;;;39.53;;
14094;SDS011;18096;48.142;16.290;2022-10-16T16:17:31;68.55;;;41.08;;
14094;SDS011;18096;48.142;16.290;2022-10-16T16:19:57;66.97;;;41.20;;
14094;SDS011;18096;48.142;16.290;2022-10-16T16:22:23;69.40;;;39.30;;